Time;durP1;ratioP1;P1;durP2;ratioP2;P2;SDS_P1;SDS_P2;PMS_P1;PMS_P2;Temp;Humidity;BMP_temperature;BMP_pressure;BME280_temperature;BME280_humidity;BME280_pressure;Samples;Min_cycle;Max_cycle;Signal;HPM_P1;HPM_P2
2022/07/10 00:00:40;;;;;;;2.22;0.82;;;;;;;19.92;53.76;99980.53;4393102;32;32699;-78
2022/07/10 00:03:08;;;;;;;1.50;0.75;;;;;;;19.70;54.94;99980.28;4406153;32;33891;-79
2022/07/10 00:05:35;;;;;;;0.95;0.55;;;;;;;20.00;53.85;99978.84;4406017;32;33892;-79
2022/07/10 00:08:03;;;;;;;2.15;0.77;;;;;;;20.14;53.24;99966.69;4400342;32;34584;-79
2022/07/10 00:10:33;;;;;;;3.28;0.75;;;;;;;19.86;54.49;99969.91;4400736;32;34247;-77
2022/07/10 00:13:00;;;;;;;1.83;0.85;;;;;;;19.63;55.26;99967.94;4406861;32;34459;-79
2022/07/10 00:15:28;;;;;;;2.33;0.88;;;;;;;19.50;56.07;99968.66;4401921;32;34617;-79
2022/07/10 00:17:56;;;;;;;1.30;0.70;;;;;;;19.38;56.62;99967.62;4404416;32;33834;-79
2022/07/10 00:20:23;;;;;;;1.08;0.55;;;;;;;19.42;56.68;99964.19;4391883;32;31819;-78
2022/07/10 00:22:51;;;;;;;1.90;0.70;;;;;;;19.42;56.86;99972.06;4405531;32;34089;-78
2022/07/10 00:25:21;;;;;;;1.70;0.60;;;;;;;19.53;56.74;99971.28;4402421;32;33942;-78
2022/07/10 00:27:49;;;;;;;1.75;0.77;;;;;;;19.46;56.85;99972.97;4405349;32;32827;-79
2022/07/10 00:30:16;;;;;;;3.35;0.82;;;;;;;19.44;57.03;99983.47;4406145;32;33288;-78
2022/07/10 00:32:44;;;;;;;1.73;0.70;;;;;;;19.28;57.60;99975.38;4403508;32;33720;-79
2022/07/10 00:35:11;;;;;;;1.20;0.60;;;;;;;19.11;58.46;99968.19;4400195;32;34815;-79
2022/07/10 00:37:39;;;;;;;2.42;0.82;;;;;;;19.41;57.67;99967.69;4401527;32;33660;-78
2022/07/10 00:40:07;;;;;;;0.95;0.55;;;;;;;19.32;57.91;99967.56;4406060;32;33319;-78
2022/07/10 00:42:34;;;;;;;2.00;0.90;;;;;;;19.12;58.72;99969.06;4397585;32;34619;-78
2022/07/10 00:45:02;;;;;;;2.83;0.80;;;;;;;19.16;58.92;99970.84;4401188;32;34058;-79
2022/07/10 00:47:30;;;;;;;1.52;0.82;;;;;;;19.36;58.28;99969.38;4400154;32;34537;-78
2022/07/10 00:49:57;;;;;;;2.50;0.80;;;;;;;19.35;58.12;99962.34;4407327;32;33319;-79
2022/07/10 00:52:25;;;;;;;1.67;0.82;;;;;;;19.60;57.75;99970.50;4405172;32;32364;-79
2022/07/10 00:54:53;;;;;;;1.70;0.60;;;;;;;19.65;57.66;99976.69;4392898;32;33775;-79
2022/07/10 00:57:21;;;;;;;1.02;0.73;;;;;;;19.44;58.25;99965.06;4403413;32;33861;-78
2022/07/10 00:59:49;;;;;;;2.78;0.70;;;;;;;19.08;59.60;99959.38;4393878;32;33292;-79
2022/07/10 01:02:17;;;;;;;2.37;0.88;;;;;;;19.11;59.81;99962.06;4401460;32;32050;-79
2022/07/10 01:04:44;;;;;;;2.15;0.80;;;;;;;19.31;59.37;99960.53;4407070;32;34626;-78
2022/07/10 01:07:15;;;;;;;3.55;0.65;;;;;;;19.17;60.07;99956.88;4389917;32;34022;-79
2022/07/10 01:09:43;;;;;;;1.35;0.75;;;;;;;19.08;60.58;99951.50;4395572;32;33009;-78
2022/07/10 01:12:12;;;;;;;1.60;0.80;;;;;;;18.70;61.90;99964.94;4393659;32;32210;-78
2022/07/10 01:14:40;;;;;;;2.53;1.00;;;;;;;18.83;62.00;99964.31;4394117;32;33994;-78
2022/07/10 01:17:09;;;;;;;2.30;1.00;;;;;;;18.75;62.20;99963.28;4407259;32;34716;-79
2022/07/10 01:19:37;;;;;;;3.15;1.35;;;;;;;18.66;62.52;99959.69;4394325;32;34125;-79
2022/07/10 01:22:04;;;;;;;3.47;1.20;;;;;;;18.63;62.48;99964.88;4402756;32;34445;-79
2022/07/10 01:24:32;;;;;;;1.42;0.90;;;;;;;18.33;63.40;99969.63;4407467;32;33650;-78
2022/07/10 01:27:00;;;;;;;2.83;1.08;;;;;;;18.78;62.06;99968.59;4407988;32;34655;-80
2022/07/10 01:29:28;;;;;;;1.90;0.70;;;;;;;18.94;61.51;99964.47;4407440;32;33374;-78
2022/07/10 01:31:56;;;;;;;1.48;0.70;;;;;;;18.84;61.66;99966.09;4407269;32;33897;-78
2022/07/10 01:34:24;;;;;;;2.72;1.12;;;;;;;18.88;61.71;99967.88;4399329;32;33896;-79
2022/07/10 01:36:52;;;;;;;1.98;0.98;;;;;;;18.72;62.09;99960.63;4392781;32;34146;-78
2022/07/10 01:39:19;;;;;;;1.80;0.85;;;;;;;18.44;63.17;99965.44;4408281;32;33430;-78
2022/07/10 01:41:47;;;;;;;1.83;1.12;;;;;;;18.70;62.13;99964.94;4407465;32;34645;-79
2022/07/10 01:44:15;;;;;;;3.20;1.10;;;;;;;18.62;62.28;99968.38;4407806;32;34050;-79
2022/07/10 01:46:46;;;;;;;1.45;1.00;;;;;;;18.66;62.22;99954.44;4406934;32;33990;-79
2022/07/10 01:49:13;;;;;;;2.15;1.00;;;;;;;18.46;62.85;99948.88;4406363;32;33397;-78
2022/07/10 01:51:42;;;;;;;1.95;0.95;;;;;;;18.31;63.38;99939.91;4403715;32;34690;-77
2022/07/10 01:54:09;;;;;;;2.10;1.20;;;;;;;18.28;63.48;99949.47;4407731;32;33814;-77
2022/07/10 01:56:38;;;;;;;2.17;1.00;;;;;;;17.80;64.57;99942.53;4408277;32;33445;-78
2022/07/10 01:59:05;;;;;;;4.20;1.10;;;;;;;18.34;63.25;99940.81;4394305;32;33259;-78
2022/07/10 02:01:33;;;;;;;2.10;1.15;;;;;;;18.23;63.47;99938.06;4405898;32;33978;-78
2022/07/10 02:06:47;;;;;;;3.30;1.40;;;;;;;18.18;63.69;99937.09;4402528;32;33932;-78
2022/07/10 02:09:15;;;;;;;2.33;1.10;;;;;;;18.24;63.55;99942.44;4406545;32;34180;-80
2022/07/10 02:11:42;;;;;;;3.08;1.30;;;;;;;18.38;63.15;99933.91;4407711;32;33586;-80
2022/07/10 02:14:10;;;;;;;1.77;1.00;;;;;;;18.27;63.50;99934.63;4402270;32;33800;-83
2022/07/10 02:16:38;;;;;;;2.47;1.25;;;;;;;18.57;62.48;99933.31;4403178;32;33177;-80
2022/07/10 02:19:05;;;;;;;2.60;1.27;;;;;;;18.82;61.57;99933.69;4407924;32;33113;-80
2022/07/10 02:21:33;;;;;;;2.67;1.20;;;;;;;18.47;62.80;99942.78;4392792;32;34801;-81
2022/07/10 02:24:01;;;;;;;3.05;1.05;;;;;;;18.54;62.66;99932.37;4405575;32;33800;-80
2022/07/10 02:26:28;;;;;;;2.28;1.15;;;;;;;18.61;62.42;99924.63;4406132;32;34250;-79
2022/07/10 02:28:56;;;;;;;2.33;1.20;;;;;;;18.25;63.84;99936.34;4405664;32;33389;-80
2022/07/10 02:31:23;;;;;;;2.78;1.30;;;;;;;18.69;62.27;99936.97;4392344;32;34042;-81
2022/07/10 02:33:51;;;;;;;2.28;1.17;;;;;;;18.31;63.41;99937.28;4406787;32;32397;-83
2022/07/10 02:36:18;;;;;;;2.55;1.12;;;;;;;18.25;64.04;99932.81;4404600;32;34009;-79
2022/07/10 02:38:46;;;;;;;3.95;1.20;;;;;;;18.49;63.20;99927.06;4406207;32;33314;-81
2022/07/10 02:41:14;;;;;;;2.62;1.27;;;;;;;17.51;66.79;99933.25;4405667;32;33722;-79
2022/07/10 02:43:41;;;;;;;2.90;1.50;;;;;;;18.17;64.51;99935.31;4406973;32;34098;-81
2022/07/10 02:46:09;;;;;;;3.20;1.40;;;;;;;18.11;64.74;99931.72;4407191;32;34323;-81
2022/07/10 02:48:36;;;;;;;3.42;1.60;;;;;;;18.02;65.06;99932.44;4403108;32;33576;-80
2022/07/10 02:51:04;;;;;;;2.30;1.23;;;;;;;18.07;65.08;99936.03;4405919;32;33705;-81
2022/07/10 02:53:32;;;;;;;2.50;1.08;;;;;;;18.24;64.38;99931.06;4407530;32;33712;-81
2022/07/10 02:55:59;;;;;;;3.55;1.33;;;;;;;17.95;65.37;99925.34;4393691;32;34636;-81
2022/07/10 02:58:28;;;;;;;3.62;1.50;;;;;;;18.06;65.10;99929.91;4390129;32;33627;-76
2022/07/10 03:00:56;;;;;;;3.22;1.40;;;;;;;17.28;67.79;99937.19;4392100;32;34399;-79
2022/07/10 03:03:23;;;;;;;3.85;1.52;;;;;;;17.65;66.85;99926.53;4406052;32;33405;-80
2022/07/10 03:05:51;;;;;;;3.17;1.42;;;;;;;18.12;65.20;99929.12;4407342;32;35020;-80
2022/07/10 03:08:18;;;;;;;2.60;1.17;;;;;;;18.11;64.82;99922.09;4406078;32;34450;-80
2022/07/10 03:10:46;;;;;;;4.30;1.65;;;;;;;17.62;66.78;99919.50;4407483;32;33840;-78
2022/07/10 03:13:13;;;;;;;2.85;1.50;;;;;;;17.79;66.16;99927.66;4404647;32;34490;-79
2022/07/10 03:15:41;;;;;;;3.60;1.60;;;;;;;17.74;66.06;99931.94;4405235;32;34146;-79
2022/07/10 03:18:09;;;;;;;2.92;1.37;;;;;;;17.78;66.34;99923.28;4405084;32;34397;-80
2022/07/10 03:20:37;;;;;;;2.03;1.20;;;;;;;17.92;65.73;99920.03;4406224;32;34685;-79
2022/07/10 03:23:05;;;;;;;3.87;1.50;;;;;;;17.83;66.09;99921.62;4405679;32;33993;-78
2022/07/10 03:25:32;;;;;;;2.80;1.30;;;;;;;17.91;65.88;99918.28;4406181;32;34108;-79
2022/07/10 03:28:01;;;;;;;3.60;1.30;;;;;;;17.81;66.20;99911.94;4406036;32;34254;-79
2022/07/10 03:30:29;;;;;;;4.40;1.70;;;;;;;17.76;66.59;99922.38;4406674;32;34674;-80
2022/07/10 03:32:56;;;;;;;4.70;1.45;;;;;;;17.72;66.82;99917.94;4402530;32;33884;-79
2022/07/10 03:35:25;;;;;;;2.60;1.50;;;;;;;17.63;67.11;99907.28;4403330;32;33784;-80
2022/07/10 03:37:53;;;;;;;3.92;1.70;;;;;;;17.79;66.52;99901.47;4398249;32;33758;-80
2022/07/10 03:40:20;;;;;;;2.90;1.70;;;;;;;17.85;66.31;99898.09;4404558;32;33898;-79
2022/07/10 03:42:48;;;;;;;4.35;1.90;;;;;;;17.79;66.46;99898.84;4387672;32;32596;-79
2022/07/10 03:45:16;;;;;;;3.87;1.40;;;;;;;17.78;66.71;99907.56;4373941;32;34042;-79
2022/07/10 03:47:43;;;;;;;2.90;1.77;;;;;;;17.81;66.57;99891.91;4401386;32;34306;-79
2022/07/10 03:50:11;;;;;;;3.85;1.80;;;;;;;17.58;67.35;99893.25;4403842;32;33760;-79
2022/07/10 03:52:38;;;;;;;4.47;1.90;;;;;;;17.56;67.93;99902.78;4389204;32;34817;-79
2022/07/10 03:55:06;;;;;;;3.60;2.03;;;;;;;17.48;68.20;99903.53;4404918;32;33962;-79
2022/07/10 04:00:24;;;;;;;4.57;1.85;;;;;;;17.29;69.29;99906.66;4397876;32;33860;-79
2022/07/10 04:02:59;;;;;;;3.60;1.80;;;;;;;16.90;70.20;99902.37;4398383;32;34001;-79
2022/07/10 04:05:27;;;;;;;4.32;2.10;;;;;;;17.41;68.91;99891.19;4401177;32;34256;-80
2022/07/10 04:07:56;;;;;;;4.00;1.92;;;;;;;17.15;69.89;99892.41;4403796;32;33359;-79
2022/07/10 04:10:25;;;;;;;4.80;1.90;;;;;;;17.29;69.62;99891.84;4408152;32;34617;-80
2022/07/10 04:12:53;;;;;;;5.43;2.03;;;;;;;17.33;69.47;99898.03;4395274;32;34540;-79
2022/07/10 04:15:21;;;;;;;3.70;2.10;;;;;;;17.12;70.28;99892.38;4401851;32;34098;-80
2022/07/10 04:17:50;;;;;;;3.92;2.42;;;;;;;17.30;69.96;99890.09;4397920;32;32395;-79
2022/07/10 04:20:18;;;;;;;4.43;2.08;;;;;;;17.29;69.69;99885.72;4393704;32;33449;-79
2022/07/10 04:22:46;;;;;;;3.20;1.90;;;;;;;17.04;70.76;99884.38;4403459;32;33947;-80
2022/07/10 04:25:14;;;;;;;4.87;1.90;;;;;;;17.22;70.48;99878.59;4400635;32;34268;-78
2022/07/10 04:27:41;;;;;;;4.80;2.12;;;;;;;17.27;70.36;99888.31;4402851;32;33722;-79
2022/07/10 04:30:10;;;;;;;3.90;2.08;;;;;;;17.30;70.13;99883.12;4402628;32;33619;-79
2022/07/10 04:32:37;;;;;;;3.83;1.92;;;;;;;17.25;70.50;99883.91;4397450;32;33866;-80
2022/07/10 04:35:05;;;;;;;5.30;2.08;;;;;;;17.31;70.34;99868.31;4400821;32;34303;-79
2022/07/10 04:37:34;;;;;;;3.87;1.98;;;;;;;17.38;70.21;99878.03;4399900;32;33686;-78
2022/07/10 04:40:02;;;;;;;4.43;2.03;;;;;;;17.57;69.52;99873.13;4404276;32;34303;-79
2022/07/10 04:42:30;;;;;;;4.53;2.60;;;;;;;17.25;70.91;99874.31;4401227;32;33760;-80
2022/07/10 04:44:58;;;;;;;3.95;2.20;;;;;;;17.69;68.87;99873.31;4390601;32;34113;-80
2022/07/10 04:47:25;;;;;;;4.43;2.12;;;;;;;17.85;68.22;99872.78;4404481;32;33639;-79
2022/07/10 04:49:52;;;;;;;4.43;2.22;;;;;;;17.75;68.55;99868.22;4404951;32;34601;-79
2022/07/10 04:52:20;;;;;;;4.32;2.22;;;;;;;17.84;68.38;99867.50;4405006;32;34143;-79
2022/07/10 04:54:48;;;;;;;3.15;1.87;;;;;;;17.83;68.24;99863.97;4401714;32;34057;-79
2022/07/10 04:57:16;;;;;;;3.67;1.85;;;;;;;17.91;68.07;99868.50;4404244;32;33286;-79
2022/07/10 04:59:44;;;;;;;3.30;1.73;;;;;;;18.45;66.26;99865.81;4407013;32;34714;-78
2022/07/10 05:02:12;;;;;;;3.62;1.90;;;;;;;18.42;65.91;99857.00;4406447;32;33825;-78
2022/07/10 05:04:40;;;;;;;4.57;2.03;;;;;;;18.40;65.83;99862.22;4402035;32;34131;-79
2022/07/10 05:07:07;;;;;;;5.78;2.10;;;;;;;18.12;67.45;99860.97;4400464;32;34303;-80
2022/07/10 05:09:35;;;;;;;3.90;2.30;;;;;;;18.27;66.68;99866.44;4405097;32;33964;-79
2022/07/10 05:12:03;;;;;;;5.10;2.20;;;;;;;18.11;67.54;99864.44;4402563;32;32637;-80
2022/07/10 05:14:30;;;;;;;4.00;2.05;;;;;;;18.27;67.09;99866.44;4400188;32;33790;-80
2022/07/10 05:16:58;;;;;;;3.70;1.80;;;;;;;18.30;67.01;99869.97;4402349;32;33649;-78
2022/07/10 05:19:25;;;;;;;4.20;2.00;;;;;;;18.72;65.00;99863.56;4391722;32;33684;-80
2022/07/10 05:21:53;;;;;;;4.20;1.90;;;;;;;18.73;65.02;99870.53;4393011;32;33329;-78
2022/07/10 05:24:21;;;;;;;4.53;2.40;;;;;;;18.51;65.22;99865.03;4407449;32;34407;-80
2022/07/10 05:26:48;;;;;;;3.70;1.80;;;;;;;18.28;65.84;99867.31;4406987;32;33243;-77
2022/07/10 05:29:16;;;;;;;3.50;1.83;;;;;;;18.26;66.04;99862.03;4407837;32;33986;-79
2022/07/10 05:31:44;;;;;;;3.60;1.90;;;;;;;18.50;65.63;99851.88;4406136;32;33175;-81
2022/07/10 05:34:12;;;;;;;3.35;1.80;;;;;;;18.21;67.56;99860.22;4404145;32;33072;-80
2022/07/10 05:36:40;;;;;;;4.03;2.10;;;;;;;18.63;64.83;99853.81;4405551;32;34299;-78
2022/07/10 05:39:07;;;;;;;5.57;2.00;;;;;;;17.70;68.29;99851.53;4404486;32;34606;-79
2022/07/10 05:41:36;;;;;;;3.65;2.12;;;;;;;17.81;68.11;99849.97;4393735;32;34814;-80
2022/07/10 05:44:03;;;;;;;3.62;2.08;;;;;;;18.55;65.21;99845.84;4406798;32;32910;-78
2022/07/10 05:46:31;;;;;;;3.45;1.92;;;;;;;18.02;67.39;99849.47;4405655;32;33672;-79
2022/07/10 05:48:58;;;;;;;5.47;2.28;;;;;;;18.90;64.41;99853.28;4408229;32;33932;-81
2022/07/10 05:51:26;;;;;;;3.75;1.83;;;;;;;19.09;63.26;99848.28;4407620;32;33607;-79
2022/07/10 05:54:03;;;;;;;4.03;1.77;;;;;;;18.96;63.42;99842.00;4404662;32;34106;-78
2022/07/10 05:56:31;;;;;;;3.58;1.75;;;;;;;18.95;63.39;99846.38;4406717;32;32063;-79
2022/07/10 05:58:58;;;;;;;4.45;2.10;;;;;;;19.14;63.18;99851.81;4406428;32;33902;-79
2022/07/10 06:01:26;;;;;;;6.00;2.10;;;;;;;19.11;62.25;99852.66;4406030;32;32505;-80
2022/07/10 06:03:54;;;;;;;4.22;1.80;;;;;;;18.99;62.15;99845.53;4399129;32;34262;-79
2022/07/10 06:06:22;;;;;;;4.62;1.92;;;;;;;18.85;62.93;99844.47;4406487;32;33682;-78
2022/07/10 06:08:49;;;;;;;4.18;1.87;;;;;;;19.02;62.47;99852.56;4406417;32;33875;-79
2022/07/10 06:11:17;;;;;;;4.10;2.00;;;;;;;19.41;61.17;99854.75;4408068;32;34015;-78
2022/07/10 06:13:44;;;;;;;4.37;2.00;;;;;;;19.36;61.47;99848.53;4407775;32;34624;-79
2022/07/10 06:16:12;;;;;;;5.10;1.80;;;;;;;19.57;60.56;99845.25;4403899;32;33823;-78
2022/07/10 06:18:39;;;;;;;5.90;1.73;;;;;;;19.61;60.17;99848.78;4404298;32;33843;-78
2022/07/10 06:21:08;;;;;;;3.47;2.28;;;;;;;19.53;60.04;99839.94;4404644;32;34006;-79
2022/07/10 06:23:35;;;;;;;2.53;1.40;;;;;;;19.71;59.74;99847.97;4402528;32;33892;-80
2022/07/10 06:26:03;;;;;;;3.80;1.77;;;;;;;19.89;58.62;99833.25;4405951;32;33265;-79
2022/07/10 06:28:34;;;;;;;4.80;2.03;;;;;;;19.92;58.47;99843.81;4402290;32;34422;-80
2022/07/10 06:31:02;;;;;;;6.18;2.10;;;;;;;19.40;60.68;99852.97;4402487;32;34597;-78
2022/07/10 06:33:32;;;;;;;4.03;1.80;;;;;;;19.29;61.26;99841.47;4400273;32;34112;-76
2022/07/10 06:35:59;;;;;;;4.28;1.92;;;;;;;20.18;58.21;99843.97;4404576;32;34212;-80
2022/07/10 06:38:27;;;;;;;4.07;1.80;;;;;;;20.34;55.89;99843.22;4400019;32;33895;-81
2022/07/10 06:40:54;;;;;;;7.10;1.95;;;;;;;20.34;56.56;99834.41;4402111;32;33941;-80
2022/07/10 06:43:22;;;;;;;3.25;1.80;;;;;;;20.28;56.30;99842.28;4397696;32;34279;-77
2022/07/10 06:45:49;;;;;;;4.53;1.60;;;;;;;20.32;55.83;99838.78;4399369;32;34365;-79
2022/07/10 06:48:18;;;;;;;2.55;1.52;;;;;;;20.38;55.94;99849.37;4399485;32;34650;-78
2022/07/10 06:50:46;;;;;;;3.58;1.75;;;;;;;20.51;56.24;99840.66;4404903;32;34024;-80
2022/07/10 06:53:15;;;;;;;3.28;1.90;;;;;;;20.71;56.48;99842.56;4403280;32;33831;-78
2022/07/10 06:55:42;;;;;;;3.20;1.90;;;;;;;20.43;57.36;99848.50;4401092;32;33396;-78
2022/07/10 06:58:10;;;;;;;3.25;1.85;;;;;;;20.17;58.29;99839.59;4402005;32;33884;-79
2022/07/10 07:00:38;;;;;;;3.90;2.12;;;;;;;20.10;58.14;99843.94;4403267;32;33578;-78
2022/07/10 07:03:05;;;;;;;5.18;1.90;;;;;;;20.96;56.12;99838.25;4401659;32;33694;-76
2022/07/10 07:05:33;;;;;;;3.12;1.80;;;;;;;20.95;55.61;99845.25;4404023;32;33661;-78
2022/07/10 07:08:01;;;;;;;2.92;1.65;;;;;;;21.24;55.33;99839.19;4403680;32;33768;-78
2022/07/10 07:10:28;;;;;;;3.90;1.42;;;;;;;21.20;53.52;99837.44;4405893;32;34837;-78
2022/07/10 07:12:56;;;;;;;3.15;1.50;;;;;;;21.30;53.42;99828.66;4405136;32;33892;-77
2022/07/10 07:15:24;;;;;;;4.15;1.52;;;;;;;21.58;51.61;99834.00;4406107;32;33721;-77
2022/07/10 07:18:07;;;;;;;3.65;1.30;;;;;;;21.54;49.82;99834.88;4404034;32;33706;-77
2022/07/10 07:23:23;;;;;;;4.10;1.73;;;;;;;22.44;48.45;99828.63;4395141;32;34177;-79
2022/07/10 07:25:50;;;;;;;2.85;1.40;;;;;;;22.14;49.22;99825.16;4407985;32;34103;-78
2022/07/10 07:28:19;;;;;;;2.70;1.20;;;;;;;23.61;43.98;99829.81;4406217;32;34536;-78
2022/07/10 07:30:47;;;;;;;2.03;1.15;;;;;;;24.38;42.99;99832.63;4406394;32;34812;-76
2022/07/10 07:33:15;;;;;;;2.92;1.30;;;;;;;24.45;41.96;99829.00;4406572;32;33081;-79
2022/07/10 07:35:43;;;;;;;2.30;1.20;;;;;;;24.40;40.60;99822.91;4402643;32;34123;-78
2022/07/10 07:38:10;;;;;;;1.83;0.90;;;;;;;24.09;41.21;99838.22;4403441;32;34539;-79
2022/07/10 07:40:38;;;;;;;2.72;1.08;;;;;;;24.40;39.22;99828.19;4402655;32;33265;-79
2022/07/10 07:43:06;;;;;;;4.90;1.23;;;;;;;24.64;39.33;99813.78;4402501;32;33887;-78
2022/07/10 07:45:34;;;;;;;2.22;1.00;;;;;;;24.22;40.11;99823.06;4405521;32;33810;-79
2022/07/10 07:48:01;;;;;;;1.85;0.82;;;;;;;24.43;39.80;99825.47;4391709;32;32788;-78
2022/07/10 07:50:34;;;;;;;2.47;1.10;;;;;;;25.14;38.46;99829.91;4404099;32;33969;-77
2022/07/10 07:53:03;;;;;;;5.32;1.60;;;;;;;24.33;39.96;99830.00;4404271;32;34442;-83
2022/07/10 07:55:32;;;;;;;4.30;1.23;;;;;;;23.99;41.92;99840.09;4403526;32;34543;-77
2022/07/10 07:58:00;;;;;;;3.55;1.20;;;;;;;23.67;41.63;99833.25;4409994;32;34258;-77
2022/07/10 08:00:28;;;;;;;2.47;1.15;;;;;;;23.75;41.43;99834.06;4406787;32;32761;-77
2022/07/10 08:02:57;;;;;;;2.05;0.88;;;;;;;25.26;39.11;99829.75;4399727;32;34185;-78
2022/07/10 08:05:25;;;;;;;2.05;1.00;;;;;;;25.57;37.07;99823.09;4405222;32;34569;-78
2022/07/10 08:07:54;;;;;;;2.47;1.10;;;;;;;25.80;37.11;99828.03;4403120;32;34702;-79
2022/07/10 08:10:24;;;;;;;2.70;1.10;;;;;;;26.13;35.69;99817.75;4390936;32;34211;-77
2022/07/10 08:12:51;;;;;;;2.45;1.10;;;;;;;26.60;35.21;99826.63;4402690;32;34973;-76
2022/07/10 08:15:23;;;;;;;2.15;1.00;;;;;;;27.24;34.64;99822.56;4405689;32;33570;-74
2022/07/10 08:17:55;;;;;;;1.75;0.95;;;;;;;27.13;34.13;99818.37;4403648;32;34299;-79
2022/07/10 08:20:25;;;;;;;3.50;1.15;;;;;;;28.01;32.97;99826.03;4403460;32;34006;-77
2022/07/10 08:22:53;;;;;;;1.95;1.10;;;;;;;25.18;36.05;99818.37;4404151;32;33770;-79
2022/07/10 08:25:27;;;;;;;2.80;1.33;;;;;;;25.33;36.89;99816.44;4404345;32;33655;-83
2022/07/10 08:28:01;;;;;;;2.85;1.10;;;;;;;26.99;34.43;99829.31;4401853;32;34693;-80
2022/07/10 08:30:29;;;;;;;2.15;1.15;;;;;;;26.25;36.94;99822.81;4403258;32;34004;-78
2022/07/10 08:32:56;;;;;;;2.50;1.02;;;;;;;27.01;33.79;99812.41;4403420;32;34776;-80
2022/07/10 08:35:24;;;;;;;2.90;1.20;;;;;;;27.03;34.13;99820.38;4403736;32;32357;-76
2022/07/10 08:37:51;;;;;;;3.50;1.33;;;;;;;25.04;37.40;99818.56;4404121;32;33821;-78
2022/07/10 08:40:21;;;;;;;2.05;1.20;;;;;;;26.45;35.56;99815.34;4404401;32;33650;-78
2022/07/10 08:42:48;;;;;;;3.05;1.30;;;;;;;26.63;33.39;99819.44;4405581;32;34852;-78
2022/07/10 08:45:16;;;;;;;2.78;1.20;;;;;;;26.68;33.88;99811.37;4405116;32;33725;-76
2022/07/10 08:47:46;;;;;;;3.17;1.20;;;;;;;26.27;35.28;99811.28;4405412;32;33417;-75
2022/07/10 08:50:22;;;;;;;1.00;0.70;;;;;;;26.38;34.24;99816.38;4400261;32;33275;-80
2022/07/10 08:52:55;;;;;;;3.37;1.20;;;;;;;26.50;33.90;99801.97;4401951;32;34151;-76
2022/07/10 08:55:26;;;;;;;4.28;1.10;;;;;;;26.01;34.28;99811.75;4402484;32;33990;-80
2022/07/10 08:57:55;;;;;;;3.37;1.08;;;;;;;25.68;34.81;99805.25;4401858;32;34315;-76
2022/07/10 09:00:24;;;;;;;3.17;1.20;;;;;;;25.62;34.46;99800.91;4405538;32;34493;-72
2022/07/10 09:02:53;;;;;;;3.55;1.10;;;;;;;24.59;36.52;99804.16;4402117;32;34083;-77
2022/07/10 09:05:23;;;;;;;2.97;0.95;;;;;;;24.88;35.93;99802.03;4405355;32;32998;-79
2022/07/10 09:07:53;;;;;;;3.97;0.73;;;;;;;26.04;34.20;99798.44;4406953;32;33983;-77
2022/07/10 09:10:25;;;;;;;1.83;0.80;;;;;;;26.36;33.77;99794.28;4405345;32;33986;-76
2022/07/10 09:12:57;;;;;;;3.10;0.80;;;;;;;26.99;33.38;99794.78;4407820;32;33679;-75
2022/07/10 09:15:29;;;;;;;2.92;1.00;;;;;;;26.48;32.62;99788.75;4403874;32;33734;-77
2022/07/10 09:18:00;;;;;;;2.30;0.90;;;;;;;26.13;32.94;99797.38;4405013;32;33984;-75
2022/07/10 09:20:33;;;;;;;1.52;0.90;;;;;;;24.38;35.54;99800.84;4389848;32;34005;-77
2022/07/10 09:23:13;;;;;;;4.45;0.85;;;;;;;25.25;34.68;99809.47;4388264;32;32705;-76
2022/07/10 09:25:41;;;;;;;2.25;0.77;;;;;;;25.25;34.55;99801.50;4400654;32;33375;-76
2022/07/10 09:28:09;;;;;;;1.58;0.75;;;;;;;24.83;34.48;99802.97;4393557;32;33465;-75
2022/07/10 09:30:38;;;;;;;2.15;0.82;;;;;;;24.74;34.90;99785.41;4399143;32;33133;-76
2022/07/10 09:33:25;;;;;;;1.58;0.82;;;;;;;25.17;34.68;99798.06;4401445;32;34003;-77
2022/07/10 09:36:12;;;;;;;2.45;0.60;;;;;;;24.96;34.71;99793.09;4388335;32;31962;-79
2022/07/10 09:38:42;;;;;;;2.53;0.90;;;;;;;24.63;35.51;99790.88;4403386;32;33351;-77
2022/07/10 09:41:25;;;;;;;2.30;1.17;;;;;;;24.86;35.48;99797.63;4403736;32;33336;-77
2022/07/10 09:44:02;;;;;;;2.80;0.90;;;;;;;24.86;36.85;99797.63;4403342;32;33865;-77
2022/07/10 09:46:38;;;;;;;2.03;0.70;;;;;;;24.45;38.29;99799.88;4405953;32;34453;-75
2022/07/10 09:49:10;;;;;;;2.37;0.80;;;;;;;24.50;36.35;99800.69;4406667;32;34580;-75
2022/07/10 09:51:42;;;;;;;4.12;0.98;;;;;;;24.67;35.42;99786.41;4405583;32;33426;-77
2022/07/10 09:54:16;;;;;;;2.30;0.88;;;;;;;24.38;36.99;99795.56;4407027;32;34821;-75
2022/07/10 09:56:47;;;;;;;2.12;0.80;;;;;;;24.32;37.05;99791.22;4392375;32;34237;-77
2022/07/10 09:59:17;;;;;;;1.00;0.62;;;;;;;24.69;37.15;99788.13;4407155;32;33927;-77
2022/07/10 10:01:46;;;;;;;3.62;0.90;;;;;;;24.66;35.13;99789.94;4404022;32;33223;-77
2022/07/10 10:04:16;;;;;;;1.33;0.70;;;;;;;24.95;34.87;99776.28;4407890;32;34888;-78
2022/07/10 10:06:56;;;;;;;1.62;0.70;;;;;;;25.48;34.89;99765.81;4406909;32;33079;-79
2022/07/10 10:09:28;;;;;;;3.05;0.65;;;;;;;25.77;33.90;99770.59;4393024;32;34684;-79
2022/07/10 10:11:58;;;;;;;2.40;0.80;;;;;;;25.78;32.51;99755.56;4408460;32;34276;-77
2022/07/10 10:14:27;;;;;;;1.30;0.70;;;;;;;25.10;35.02;99764.59;4416826;32;34362;-76
2022/07/10 10:16:56;;;;;;;2.95;0.82;;;;;;;25.13;34.42;99764.56;4405290;32;33781;-76
2022/07/10 10:22:12;;;;;;;1.40;0.70;;;;;;;24.84;34.54;99757.91;4408293;32;34043;-77
2022/07/10 10:24:43;;;;;;;2.45;0.90;;;;;;;25.60;33.31;99748.81;4408938;32;34055;-78
2022/07/10 10:27:11;;;;;;;1.52;0.40;;;;;;;25.56;32.99;99742.69;4387321;32;33353;-77
2022/07/10 10:29:39;;;;;;;1.00;0.70;;;;;;;25.25;32.75;99748.50;4405341;32;33678;-76
2022/07/10 10:32:07;;;;;;;2.45;0.60;;;;;;;25.45;32.26;99739.31;4408312;32;34101;-77
2022/07/10 10:34:39;;;;;;;3.12;1.40;;;;;;;25.52;32.21;99746.28;4407171;32;34064;-77
2022/07/10 10:37:07;;;;;;;1.65;0.70;;;;;;;25.50;31.15;99732.19;4406409;32;32257;-76
2022/07/10 10:39:53;;;;;;;3.33;0.90;;;;;;;25.83;31.06;99733.34;4411257;32;34502;-76
2022/07/10 10:42:36;;;;;;;2.40;0.55;;;;;;;25.86;32.36;99732.41;4407994;32;33696;-77
2022/07/10 10:45:27;;;;;;;2.35;0.77;;;;;;;25.21;32.07;99730.84;4402442;32;34837;-76
2022/07/10 10:48:09;;;;;;;2.05;0.70;;;;;;;25.40;33.33;99735.88;4405515;32;33663;-78
2022/07/10 10:50:56;;;;;;;3.33;0.80;;;;;;;25.22;34.30;99737.94;4407311;32;33532;-76
2022/07/10 10:53:26;;;;;;;1.87;0.98;;;;;;;25.10;35.27;99754.00;4410752;32;33970;-75
2022/07/10 10:55:59;;;;;;;3.45;1.00;;;;;;;24.78;36.52;99743.88;4406349;32;34451;-77
2022/07/10 10:58:28;;;;;;;1.95;0.70;;;;;;;24.45;36.60;99749.56;4405179;32;34281;-76
2022/07/10 11:01:03;;;;;;;2.55;0.77;;;;;;;24.37;36.87;99739.97;4391733;32;34706;-76
2022/07/10 11:03:31;;;;;;;2.87;0.70;;;;;;;24.88;35.63;99745.50;4406706;32;34043;-76
2022/07/10 11:05:58;;;;;;;1.62;0.70;;;;;;;25.22;33.33;99737.94;4404886;32;34742;-77
2022/07/10 11:08:40;;;;;;;1.35;0.55;;;;;;;25.07;32.78;99735.47;4407890;32;34231;-76
2022/07/10 11:11:37;;;;;;;1.58;0.50;;;;;;;25.76;32.33;99726.37;4406102;32;32235;-77
2022/07/10 11:14:05;;;;;;;3.80;0.60;;;;;;;25.77;32.25;99721.94;4405277;32;32302;-76
2022/07/10 11:16:32;;;;;;;4.18;1.10;;;;;;;25.29;32.05;99710.41;4406795;32;34644;-76
2022/07/10 11:19:01;;;;;;;2.45;0.70;;;;;;;25.65;31.69;99720.41;4407031;32;34316;-77
2022/07/10 11:21:28;;;;;;;2.65;0.62;;;;;;;25.69;31.18;99688.50;4401426;32;86829;-75
2022/07/10 11:24:40;;;;;;;5.20;0.82;;;;;;;25.67;31.79;99714.19;4406613;32;34781;-76
2022/07/10 11:27:34;;;;;;;2.12;0.62;;;;;;;24.57;35.44;99732.69;4382617;32;34381;-75
2022/07/10 11:30:02;;;;;;;10.52;1.05;;;;;;;25.03;35.50;99760.28;4405161;32;33254;-75
2022/07/10 11:32:30;;;;;;;1.50;0.60;;;;;;;24.46;35.82;99763.69;4396670;32;34523;-74
2022/07/10 11:34:58;;;;;;;1.37;0.60;;;;;;;24.17;35.86;99769.34;4407266;32;33677;-78
2022/07/10 11:37:29;;;;;;;4.37;0.75;;;;;;;24.67;35.10;99770.53;4407565;32;34159;-75
2022/07/10 11:40:11;;;;;;;3.30;0.90;;;;;;;24.11;35.52;99760.56;4407561;32;33527;-73
2022/07/10 11:42:52;;;;;;;4.25;1.27;;;;;;;23.48;37.76;99757.63;4406531;32;33617;-75
2022/07/10 11:45:25;;;;;;;2.03;0.95;;;;;;;23.01;37.88;99772.06;4405046;32;34493;-75
2022/07/10 11:47:53;;;;;;;3.22;1.12;;;;;;;22.82;38.27;99760.72;4406464;32;34729;-78
2022/07/10 11:50:21;;;;;;;2.50;0.90;;;;;;;22.86;38.86;99763.31;4393857;32;33451;-75
2022/07/10 11:52:50;;;;;;;1.67;0.90;;;;;;;22.89;39.34;99749.22;4393423;32;34004;-77
2022/07/10 11:55:21;;;;;;;2.60;1.20;;;;;;;22.11;41.37;99751.31;4406873;32;34892;-76